createdAt,value
2019-03-21T00:03:46.799Z,2.30
2019-03-21T00:07:51.170Z,2.27
2019-03-21T00:11:58.011Z,2.17
2019-03-21T00:16:02.336Z,2.00
2019-03-21T00:20:09.127Z,2.20
2019-03-21T00:24:13.620Z,1.60
2019-03-21T00:28:18.259Z,1.80
2019-03-21T00:32:23.333Z,2.00
2019-03-21T00:36:27.772Z,1.73
2019-03-21T00:40:33.397Z,1.80
2019-03-21T00:44:38.859Z,1.80
2019-03-21T00:48:43.401Z,2.00
2019-03-21T00:52:48.586Z,1.97
2019-03-21T00:56:53.067Z,1.80
2019-03-21T01:00:57.710Z,1.70
2019-03-21T01:05:02.156Z,2.07
2019-03-21T01:09:07.477Z,1.87
2019-03-21T01:13:12.027Z,2.27
2019-03-21T01:17:16.616Z,2.17
2019-03-21T01:21:20.994Z,2.33
2019-03-21T01:25:28.279Z,2.27
2019-03-21T01:29:32.665Z,2.30
2019-03-21T01:33:37.026Z,2.40
2019-03-21T01:37:41.339Z,2.30
2019-03-21T01:41:45.770Z,2.47
2019-03-21T01:45:50.052Z,2.90
2019-03-21T01:49:54.420Z,2.90
2019-03-21T01:53:58.764Z,3.20
2019-03-21T01:58:03.336Z,3.00
2019-03-21T02:02:08.700Z,3.13
2019-03-21T02:06:13.025Z,3.30
2019-03-21T02:10:17.337Z,2.87
2019-03-21T02:14:21.707Z,3.30
2019-03-21T02:18:26.080Z,3.13
2019-03-21T02:22:30.383Z,3.10
2019-03-21T02:26:35.726Z,3.00
2019-03-21T02:30:40.209Z,3.43
2019-03-21T02:34:44.369Z,3.17
2019-03-21T02:38:48.616Z,4.67
2019-03-21T02:42:52.991Z,3.83
2019-03-21T02:46:57.383Z,3.70
2019-03-21T02:51:01.816Z,4.10
2019-03-21T02:55:06.091Z,4.00
2019-03-21T02:59:10.363Z,3.93
2019-03-21T03:03:14.653Z,3.40
2019-03-21T03:07:19.185Z,3.20
2019-03-21T03:11:23.659Z,2.93
2019-03-21T03:15:29.561Z,3.30
2019-03-21T03:19:34.965Z,3.37
2019-03-21T03:23:39.226Z,3.20
2019-03-21T03:27:43.923Z,3.00
2019-03-21T03:31:48.082Z,3.40
2019-03-21T03:35:52.424Z,3.33
2019-03-21T03:39:56.637Z,2.80
2019-03-21T03:44:01.058Z,3.27
2019-03-21T03:48:05.318Z,3.40
2019-03-21T03:52:09.736Z,3.23
2019-03-21T03:56:14.097Z,3.27
2019-03-21T04:04:45.504Z,3.47
2019-03-21T04:08:49.902Z,3.07
2019-03-21T04:12:54.247Z,3.37
2019-03-21T04:16:58.559Z,3.40
2019-03-21T04:21:04.983Z,3.33
2019-03-21T04:25:10.005Z,3.23
2019-03-21T04:29:14.332Z,3.10
2019-03-21T04:33:18.601Z,2.93
2019-03-21T04:37:22.823Z,3.00
2019-03-21T04:41:27.287Z,3.00
2019-03-21T04:45:31.535Z,2.87
2019-03-21T04:49:35.791Z,2.57
2019-03-21T04:53:39.947Z,2.43
2019-03-21T04:57:44.211Z,2.43
2019-03-21T05:01:48.622Z,2.30
2019-03-21T05:05:53.075Z,2.30
2019-03-21T05:09:57.518Z,2.87
2019-03-21T05:14:01.756Z,2.23
2019-03-21T05:18:07.694Z,2.50
2019-03-21T05:22:12.018Z,3.03
2019-03-21T05:26:16.338Z,5.60
2019-03-21T05:30:22.427Z,5.97
2019-03-21T05:34:26.725Z,5.10
2019-03-21T05:38:31.510Z,4.23
2019-03-21T05:42:35.814Z,3.93
2019-03-21T05:46:40.100Z,4.27
2019-03-21T05:50:44.400Z,3.63
2019-03-21T05:54:48.770Z,3.60
2019-03-21T05:58:53.125Z,2.90
2019-03-21T06:02:57.593Z,3.23
2019-03-21T06:07:13.237Z,3.33
2019-03-21T06:11:17.535Z,3.30
2019-03-21T06:15:23.253Z,3.13
2019-03-21T06:19:30.121Z,3.43
2019-03-21T06:23:53.555Z,3.20
2019-03-21T06:27:57.884Z,3.50
2019-03-21T06:32:02.212Z,3.57
2019-03-21T06:36:06.505Z,3.70
2019-03-21T06:40:10.950Z,4.60
2019-03-21T06:44:15.220Z,3.73
2019-03-21T06:48:19.468Z,3.13
2019-03-21T06:52:23.800Z,2.80
2019-03-21T06:56:28.042Z,4.43
2019-03-21T07:00:32.616Z,5.13
2019-03-21T07:04:36.860Z,4.60
2019-03-21T07:08:41.160Z,4.33
2019-03-21T07:12:46.689Z,3.30
2019-03-21T07:17:00.092Z,3.83
2019-03-21T07:20:57.418Z,3.97
2019-03-21T07:25:01.815Z,3.50
2019-03-21T07:29:06.097Z,2.60
2019-03-21T07:33:11.158Z,2.90
2019-03-21T07:37:15.596Z,2.90
2019-03-21T07:41:20.087Z,3.20
2019-03-21T07:45:24.570Z,4.17
2019-03-21T07:49:29.042Z,3.37
2019-03-21T07:53:33.712Z,4.07
2019-03-21T07:57:38.092Z,3.33
2019-03-21T08:01:42.541Z,3.20
2019-03-21T08:05:48.059Z,3.10
2019-03-21T08:09:52.455Z,2.50
2019-03-21T08:13:57.145Z,3.97
2019-03-21T08:18:01.475Z,2.40
2019-03-21T08:22:05.813Z,2.67
2019-03-21T08:26:10.260Z,3.00
2019-03-21T08:30:25.468Z,2.87
2019-03-21T08:34:30.137Z,3.27
2019-03-21T08:38:34.458Z,3.02
2019-03-21T08:42:38.913Z,2.83
2019-03-21T08:46:43.360Z,3.20
2019-03-21T08:50:47.848Z,2.90
2019-03-21T08:54:53.384Z,2.70
2019-03-21T08:58:58.626Z,2.70
2019-03-21T09:03:03.173Z,2.75
2019-03-21T09:07:07.725Z,2.67
2019-03-21T09:11:12.169Z,2.50
2019-03-21T09:15:16.609Z,2.58
2019-03-21T09:19:21.367Z,2.10
2019-03-21T09:23:25.874Z,1.70
2019-03-21T09:27:30.254Z,1.62
2019-03-21T09:31:35.627Z,1.57
2019-03-21T09:35:40.163Z,1.80
2019-03-21T09:39:44.609Z,1.70
2019-03-21T09:43:49.002Z,2.08
2019-03-21T09:47:53.298Z,1.52
2019-03-21T09:51:58.309Z,1.85
2019-03-21T09:56:02.827Z,1.92
2019-03-21T10:00:08.307Z,2.25
2019-03-21T10:04:12.777Z,2.70
2019-03-21T10:12:34.001Z,2.55
2019-03-21T10:16:38.484Z,2.70
2019-03-21T10:20:42.761Z,2.75
2019-03-21T10:24:47.097Z,3.02
2019-03-21T10:28:51.411Z,3.52
2019-03-21T10:32:56.762Z,2.72
2019-03-21T10:37:01.173Z,2.83
2019-03-21T10:41:05.692Z,3.62
2019-03-21T10:45:10.186Z,2.90
2019-03-21T10:49:14.573Z,2.85
2019-03-21T10:53:19.013Z,3.02
2019-03-21T10:57:23.478Z,2.90
2019-03-21T11:01:27.933Z,3.10
2019-03-21T11:05:33.146Z,2.33
2019-03-21T11:09:37.628Z,2.70
2019-03-21T11:13:42.021Z,2.40
2019-03-21T11:17:46.529Z,2.83
2019-03-21T11:21:50.759Z,2.67
2019-03-21T11:25:55.241Z,2.37
2019-03-21T11:29:59.702Z,2.70
2019-03-21T11:34:04.147Z,2.60
2019-03-21T11:38:08.755Z,3.15
2019-03-21T11:42:13.190Z,2.40
2019-03-21T11:46:17.598Z,1.72
2019-03-21T11:50:22.164Z,2.50
2019-03-21T11:54:26.629Z,2.40
2019-03-21T11:58:30.957Z,2.10
2019-03-21T12:02:35.288Z,2.10
2019-03-21T12:06:39.703Z,2.10
2019-03-21T12:10:44.341Z,2.20
2019-03-21T12:14:48.731Z,1.70
2019-03-21T12:18:53.139Z,2.40
2019-03-21T12:22:57.679Z,2.65
2019-03-21T12:27:02.092Z,2.08
2019-03-21T12:31:06.437Z,2.27
2019-03-21T12:35:10.857Z,1.98
2019-03-21T12:39:15.136Z,2.00
2019-03-21T12:43:20.464Z,2.37
2019-03-21T12:47:31.134Z,2.37
2019-03-21T12:51:30.786Z,2.30
2019-03-21T12:55:35.161Z,2.30
2019-03-21T12:59:39.526Z,2.02
2019-03-21T13:03:43.918Z,2.35
2019-03-21T13:07:48.338Z,1.80
2019-03-21T13:11:52.683Z,1.70
2019-03-21T13:15:57.178Z,1.30
2019-03-21T13:20:01.602Z,1.60
2019-03-21T13:24:07.202Z,1.40
2019-03-21T13:28:11.567Z,1.30
2019-03-21T13:32:15.931Z,1.57
2019-03-21T13:36:20.407Z,1.45
2019-03-21T13:40:24.824Z,1.77
2019-03-21T13:44:29.196Z,1.40
2019-03-21T13:48:33.639Z,1.45
2019-03-21T13:52:38.230Z,1.40
2019-03-21T13:56:42.600Z,1.25
2019-03-21T14:00:47.968Z,1.60
2019-03-21T14:04:52.428Z,1.42
2019-03-21T14:08:56.952Z,1.72
2019-03-21T14:13:01.388Z,1.40
2019-03-21T14:17:06.165Z,1.87
2019-03-21T14:21:10.685Z,1.47
2019-03-21T14:25:15.255Z,1.30
2019-03-21T14:29:19.668Z,1.52
2019-03-21T14:33:25.123Z,1.35
2019-03-21T14:37:29.438Z,1.72
2019-03-21T14:41:34.808Z,1.30
2019-03-21T14:45:39.183Z,1.40
2019-03-21T14:49:43.673Z,0.90
2019-03-21T14:53:48.157Z,1.10
2019-03-21T14:57:52.746Z,1.20
2019-03-21T15:01:57.306Z,1.25
2019-03-21T15:06:01.565Z,1.60
2019-03-21T15:10:06.988Z,1.05
2019-03-21T15:14:11.548Z,1.10
2019-03-21T15:18:15.977Z,0.95
2019-03-21T15:22:20.369Z,1.12
2019-03-21T15:26:24.823Z,1.45
2019-03-21T15:30:29.178Z,1.05
2019-03-21T15:34:33.685Z,1.27
2019-03-21T15:38:39.183Z,1.20
2019-03-21T15:42:43.697Z,1.55
2019-03-21T15:46:48.178Z,1.72
2019-03-21T15:51:03.835Z,1.80
2019-03-21T15:54:58.826Z,1.10
2019-03-21T15:59:03.435Z,2.45
2019-03-21T16:03:07.964Z,1.37
2019-03-21T16:07:12.374Z,1.52
2019-03-21T16:11:16.817Z,1.12
2019-03-21T16:15:21.279Z,1.40
2019-03-21T16:19:25.889Z,1.55
2019-03-21T16:23:30.600Z,1.20
2019-03-21T16:27:35.248Z,1.17
2019-03-21T16:31:39.522Z,1.42
2019-03-21T16:35:44.035Z,1.00
2019-03-21T16:39:48.397Z,1.22
2019-03-21T16:43:52.813Z,1.12
2019-03-21T16:47:57.448Z,1.30
2019-03-21T16:52:02.026Z,1.00
2019-03-21T16:56:07.451Z,0.80
2019-03-21T17:00:12.149Z,0.93
2019-03-21T17:04:16.643Z,0.98
2019-03-21T17:08:21.240Z,1.67
2019-03-21T17:12:25.749Z,1.87
2019-03-21T17:16:30.229Z,1.65
2019-03-21T17:20:34.617Z,1.32
2019-03-21T17:24:39.237Z,1.60
2019-03-21T17:28:43.744Z,2.50
2019-03-21T17:32:48.665Z,1.00
2019-03-21T17:36:53.009Z,1.23
2019-03-21T17:40:57.205Z,1.87
2019-03-21T17:45:01.597Z,1.55
2019-03-21T17:49:05.996Z,1.80
2019-03-21T17:53:10.191Z,1.60
2019-03-21T17:57:14.391Z,1.47
2019-03-21T18:01:18.900Z,2.00
2019-03-21T18:05:23.323Z,1.93
2019-03-21T18:09:28.076Z,1.93
2019-03-21T18:13:32.511Z,1.97
2019-03-21T18:17:36.763Z,5.23
2019-03-21T18:21:40.999Z,6.27
2019-03-21T18:25:45.384Z,4.57
2019-03-21T18:29:49.702Z,2.80
2019-03-21T18:33:54.067Z,2.60
2019-03-21T18:37:58.427Z,2.00
2019-03-21T18:42:02.834Z,2.63
2019-03-21T18:46:07.058Z,2.10
2019-03-21T18:50:11.573Z,2.80
2019-03-21T18:54:16.058Z,3.00
2019-03-21T18:58:20.397Z,3.60
2019-03-21T19:02:24.770Z,3.00
2019-03-21T19:06:29.185Z,3.53
2019-03-21T19:10:33.611Z,3.50
2019-03-21T19:14:37.940Z,4.00
2019-03-21T19:18:42.260Z,3.80
2019-03-21T19:22:46.672Z,3.43
2019-03-21T19:26:51.098Z,3.57
2019-03-21T19:30:55.499Z,3.37
2019-03-21T19:35:00.828Z,3.30
2019-03-21T19:39:06.869Z,3.10
2019-03-21T19:43:11.200Z,2.70
2019-03-21T19:47:24.298Z,2.70
2019-03-21T19:51:22.673Z,3.10
2019-03-21T19:55:31.113Z,2.87
2019-03-21T19:59:33.515Z,2.73
2019-03-21T20:03:38.927Z,3.30
2019-03-21T20:07:43.535Z,4.60
2019-03-21T20:11:48.055Z,3.33
2019-03-21T20:15:52.774Z,3.13
2019-03-21T20:19:57.059Z,3.53
2019-03-21T20:24:02.615Z,3.10
2019-03-21T20:28:07.078Z,2.27
2019-03-21T20:32:20.157Z,2.43
2019-03-21T20:36:17.440Z,2.63
2019-03-21T20:40:21.814Z,2.60
2019-03-21T20:44:26.136Z,2.50
2019-03-21T20:48:30.660Z,2.40
2019-03-21T20:52:35.103Z,2.30
2019-03-21T20:56:39.449Z,2.30
2019-03-21T21:00:43.944Z,2.20
2019-03-21T21:04:48.675Z,2.37
2019-03-21T21:08:53.208Z,3.00
2019-03-21T21:12:57.589Z,2.50
2019-03-21T21:17:01.962Z,2.47
2019-03-21T21:21:06.288Z,2.50
2019-03-21T21:25:11.388Z,2.30
2019-03-21T21:29:15.687Z,2.97
2019-03-21T21:33:20.037Z,2.40
2019-03-21T21:37:25.338Z,3.23
2019-03-21T21:41:29.637Z,3.07
2019-03-21T21:45:34.213Z,3.70
2019-03-21T21:49:38.522Z,3.60
2019-03-21T21:53:42.871Z,4.57
2019-03-21T21:57:47.188Z,4.97
2019-03-21T22:01:51.527Z,6.13
2019-03-21T22:05:55.786Z,7.27
2019-03-21T22:10:00.186Z,6.43
2019-03-21T22:14:04.728Z,6.70
2019-03-21T22:18:09.259Z,6.67
2019-03-21T22:22:13.660Z,6.70
2019-03-21T22:26:28.931Z,7.73
2019-03-21T22:30:23.979Z,6.83
2019-03-21T22:34:30.861Z,7.27
2019-03-21T22:38:35.105Z,6.70
2019-03-21T22:42:40.667Z,6.73
2019-03-21T22:46:44.953Z,5.57
2019-03-21T22:50:49.256Z,6.27
2019-03-21T22:54:53.567Z,6.80
2019-03-21T22:58:57.945Z,5.57
2019-03-21T23:03:02.284Z,5.37
2019-03-21T23:07:06.579Z,5.13
2019-03-21T23:11:11.153Z,5.57
2019-03-21T23:15:15.644Z,6.70
2019-03-21T23:19:19.968Z,6.17
2019-03-21T23:23:24.422Z,5.67
2019-03-21T23:27:28.928Z,5.23
2019-03-21T23:31:33.378Z,6.07
2019-03-21T23:35:37.823Z,6.83
2019-03-21T23:39:42.163Z,7.33
2019-03-21T23:43:46.519Z,6.83
2019-03-21T23:47:50.895Z,7.93
2019-03-21T23:51:55.217Z,6.90
2019-03-21T23:55:59.543Z,6.57
